Terminal Aerodrome Forecast
Issued by NWS Wilmington, OH

Current Version | Previous Version | Text Only | Print | Product List | Glossary Off
Versions: 1 2 3 4 5 6 7 8 9 10 11 12 13 14 15 16 17 18 19 20 21 22 23 24 25 26 27 28 29

000
FTUS41 KILN 160800 AAA
TAFCVG
TAF AMD
KCVG 160808Z 1608/1712 17008KT P6SM -SHRA VCTS SCT007CB OVC016
      TEMPO 1608/1610 1SM SHRA BKN007
     FM161000 21009KT P6SM OVC015
      TEMPO 1610/1613 -SHRA
     FM161300 23011KT P6SM VCSH OVC012
     FM161500 25012G20KT P6SM OVC015
     FM170000 27010G17KT P6SM OVC015=

USA.gov is the U.S. government's official web portal to all federal, state and local government web resources and services.